Time,TemperatureF,DewpointF,PressureIn,WindDirection,WindDirectionDegrees,WindSpeedMPH,WindSpeedGustMPH,Humidity,HourlyPrecipIn,Conditions,Clouds,dailyrainin,SoftwareType,DateUTC
2013-05-08 00:01:00,60.3,58.0,30.21,NNW,347,0.0,0.0,92,0.00,,,0.00,weatherlink.com 1.10,2013-05-08 04:01:00,
2013-05-08 00:19:00,59.8,58.0,30.21,NNW,347,0.0,0.0,93,0.00,,,0.00,weatherlink.com 1.10,2013-05-08 04:19:00,
2013-05-08 00:36:00,59.3,58.0,30.21,NNW,347,0.0,0.0,94,0.00,,,0.00,weatherlink.com 1.10,2013-05-08 04:36:00,
2013-05-08 00:55:00,59.1,58.0,30.21,NNW,347,0.0,0.0,95,0.00,,,0.00,weatherlink.com 1.10,2013-05-08 04:55:00,
2013-05-08 01:13:00,59.1,58.0,30.21,NNW,347,0.0,0.0,95,0.00,,,0.00,weatherlink.com 1.10,2013-05-08 05:13:00,
2013-05-08 01:31:00,59.0,58.0,30.21,NNW,347,0.0,0.0,95,0.00,,,0.00,weatherlink.com 1.10,2013-05-08 05:31:00,
2013-05-08 01:49:00,58.8,57.0,30.20,NNW,347,0.0,0.0,95,0.00,,,0.00,weatherlink.com 1.10,2013-05-08 05:49:00,
2013-05-08 02:06:00,58.4,57.0,30.20,NNW,347,0.0,0.0,96,0.00,,,0.00,weatherlink.com 1.10,2013-05-08 06:06:00,
2013-05-08 02:24:00,58.3,57.0,30.20,NNW,347,0.0,0.0,96,0.00,,,0.00,weatherlink.com 1.10,2013-05-08 06:24:00,
2013-05-08 02:42:00,58.3,57.0,30.19,NNW,347,0.0,0.0,96,0.00,,,0.00,weatherlink.com 1.10,2013-05-08 06:42:00,
2013-05-08 03:00:00,58.3,57.0,30.19,NNW,347,0.0,0.0,96,0.00,,,0.00,weatherlink.com 1.10,2013-05-08 07:00:00,
2013-05-08 03:17:00,58.4,57.0,30.19,NNW,347,0.0,0.0,96,0.00,,,0.00,weatherlink.com 1.10,2013-05-08 07:17:00,
2013-05-08 03:36:00,58.2,57.0,30.19,NNW,347,0.0,0.0,96,0.00,,,0.00,weatherlink.com 1.10,2013-05-08 07:36:00,
2013-05-08 03:53:00,58.4,58.0,30.19,NNW,347,0.0,0.0,97,0.00,,,0.00,weatherlink.com 1.10,2013-05-08 07:53:00,
2013-05-08 04:11:00,58.4,57.0,30.19,NNW,347,0.0,0.0,96,0.00,,,0.00,weatherlink.com 1.10,2013-05-08 08:11:00,
2013-05-08 04:29:00,58.5,58.0,30.19,NNW,347,0.0,0.0,97,0.00,,,0.00,weatherlink.com 1.10,2013-05-08 08:29:00,
2013-05-08 04:47:00,58.4,58.0,30.19,NNW,347,0.0,0.0,97,0.00,,,0.00,weatherlink.com 1.10,2013-05-08 08:47:00,
2013-05-08 05:04:00,58.3,58.0,30.19,NNW,347,0.0,0.0,97,0.00,,,0.00,weatherlink.com 1.10,2013-05-08 09:04:00,
2013-05-08 05:23:00,57.8,57.0,30.19,NNW,347,0.0,0.0,97,0.00,,,0.00,weatherlink.com 1.10,2013-05-08 09:23:00,
2013-05-08 05:40:00,57.3,57.0,30.19,NNW,347,0.0,0.0,97,0.00,,,0.00,weatherlink.com 1.10,2013-05-08 09:40:00,
2013-05-08 05:57:00,56.7,56.0,30.19,NNW,347,0.0,0.0,97,0.00,,,0.00,weatherlink.com 1.10,2013-05-08 09:57:00,
2013-05-08 06:16:00,55.8,55.0,30.20,NNW,347,0.0,0.0,97,0.00,,,0.00,weatherlink.com 1.10,2013-05-08 10:16:00,
2013-05-08 06:34:00,55.2,54.0,30.20,NNW,347,0.0,0.0,97,0.00,,,0.00,weatherlink.com 1.10,2013-05-08 10:34:00,
2013-05-08 06:51:00,54.6,54.0,30.21,NNW,344,0.0,0.0,97,0.00,,,0.00,weatherlink.com 1.10,2013-05-08 10:51:00,
2013-05-08 07:10:00,55.0,54.0,30.22,NNW,344,0.0,0.0,97,0.00,,,0.00,weatherlink.com 1.10,2013-05-08 11:10:00,
2013-05-08 07:27:00,55.0,54.0,30.22,NNW,345,0.0,0.0,97,0.00,,,0.00,weatherlink.com 1.10,2013-05-08 11:27:00,
2013-05-08 07:45:00,56.4,56.0,30.23,NNW,344,0.0,0.0,98,0.00,,,0.00,weatherlink.com 1.10,2013-05-08 11:45:00,
2013-05-08 08:03:00,59.2,59.0,30.24,NNW,344,0.0,1.0,98,0.00,,,0.00,weatherlink.com 1.10,2013-05-08 12:03:00,
2013-05-08 08:20:00,60.9,60.0,30.24,NNW,337,0.0,1.0,97,0.00,,,0.00,weatherlink.com 1.10,2013-05-08 12:20:00,
2013-05-08 08:38:00,63.4,61.0,30.24,NW,316,0.0,1.0,92,0.00,,,0.00,weatherlink.com 1.10,2013-05-08 12:38:00,
2013-05-08 08:56:00,65.4,60.0,30.25,WNW,303,1.0,4.0,82,0.00,,,0.00,weatherlink.com 1.10,2013-05-08 12:56:00,
2013-05-08 09:14:00,67.4,60.0,30.25,NW,316,1.0,3.0,77,0.00,,,0.00,weatherlink.com 1.10,2013-05-08 13:14:00,
2013-05-08 09:31:00,68.7,60.0,30.25,NW,316,0.0,4.0,74,0.00,,,0.00,weatherlink.com 1.10,2013-05-08 13:31:00,
2013-05-08 09:50:00,69.8,58.0,30.25,NNW,345,2.0,4.0,67,0.00,,,0.00,weatherlink.com 1.10,2013-05-08 13:50:00,
2013-05-08 10:08:00,71.0,58.0,30.25,West,260,1.0,6.0,64,0.00,,,0.00,weatherlink.com 1.10,2013-05-08 14:08:00,
2013-05-08 10:25:00,71.8,57.0,30.25,West,260,1.0,4.0,60,0.00,,,0.00,weatherlink.com 1.10,2013-05-08 14:25:00,
2013-05-08 10:43:00,72.9,56.0,30.25,WNW,288,1.0,6.0,56,0.00,,,0.00,weatherlink.com 1.10,2013-05-08 14:43:00,
2013-05-08 11:01:00,73.1,58.0,30.25,WSW,253,3.0,7.0,59,0.00,,,0.00,weatherlink.com 1.10,2013-05-08 15:01:00,
2013-05-08 11:18:00,73.8,55.0,30.25,West,276,1.0,8.0,53,0.00,,,0.00,weatherlink.com 1.10,2013-05-08 15:18:00,
2013-05-08 11:37:00,74.5,55.0,30.25,NNE,29,3.0,8.0,51,0.00,,,0.00,weatherlink.com 1.10,2013-05-08 15:37:00,
2013-05-08 11:54:00,74.2,57.0,30.25,NW,306,0.0,6.0,55,0.00,,,0.00,weatherlink.com 1.10,2013-05-08 15:54:00,
2013-05-08 12:12:00,75.4,55.0,30.24,West,266,1.0,8.0,50,0.00,,,0.00,weatherlink.com 1.10,2013-05-08 16:12:00,
2013-05-08 12:29:00,74.4,54.0,30.24,NNW,332,1.0,5.0,50,0.00,,,0.00,weatherlink.com 1.10,2013-05-08 16:29:00,
2013-05-08 12:48:00,76.5,54.0,30.24,WNW,288,3.0,4.0,46,0.00,,,0.00,weatherlink.com 1.10,2013-05-08 16:48:00,
2013-05-08 13:05:00,76.2,54.0,30.23,WNW,297,0.0,4.0,47,0.00,,,0.00,weatherlink.com 1.10,2013-05-08 17:05:00,
2013-05-08 13:23:00,76.0,53.0,30.23,WNW,295,1.0,6.0,45,0.00,,,0.00,weatherlink.com 1.10,2013-05-08 17:23:00,
2013-05-08 13:41:00,75.4,54.0,30.23,WNW,283,1.0,5.0,48,0.00,,,0.00,weatherlink.com 1.10,2013-05-08 17:41:00,
2013-05-08 13:59:00,74.7,55.0,30.23,WNW,285,0.0,3.0,50,0.00,,,0.00,weatherlink.com 1.10,2013-05-08 17:59:00,
2013-05-08 14:16:00,74.7,55.0,30.23,WNW,288,1.0,3.0,50,0.00,,,0.00,weatherlink.com 1.10,2013-05-08 18:16:00,
2013-05-08 14:34:00,73.3,56.0,30.23,SW,222,2.0,11.0,54,0.00,,,0.00,weatherlink.com 1.10,2013-05-08 18:34:00,
2013-05-08 14:53:00,73.6,55.0,30.23,West,273,2.0,3.0,53,0.00,,,0.00,weatherlink.com 1.10,2013-05-08 18:53:00,
2013-05-08 15:10:00,77.2,56.0,30.22,West,269,0.0,3.0,48,0.00,,,0.00,weatherlink.com 1.10,2013-05-08 19:10:00,
2013-05-08 15:28:00,77.7,59.0,30.22,NW,310,2.0,3.0,53,0.00,,,0.00,weatherlink.com 1.10,2013-05-08 19:28:00,
2013-05-08 15:45:00,78.1,56.0,30.21,WNW,283,0.0,6.0,47,0.00,,,0.00,weatherlink.com 1.10,2013-05-08 19:45:00,
2013-05-08 16:04:00,77.8,57.0,30.20,West,279,1.0,3.0,49,0.00,,,0.00,weatherlink.com 1.10,2013-05-08 20:04:00,
2013-05-08 16:21:00,78.3,57.0,30.20,NNW,329,2.0,5.0,48,0.00,,,0.00,weatherlink.com 1.10,2013-05-08 20:21:00,
2013-05-08 16:39:00,78.2,54.0,30.19,WNW,286,4.0,6.0,43,0.00,,,0.00,weatherlink.com 1.10,2013-05-08 20:39:00,
2013-05-08 16:56:00,76.7,54.0,30.20,WNW,283,1.0,4.0,46,0.00,,,0.00,weatherlink.com 1.10,2013-05-08 20:56:00,
2013-05-08 17:15:00,76.2,55.0,30.19,WNW,282,0.0,2.0,48,0.00,,,0.00,weatherlink.com 1.10,2013-05-08 21:15:00,
2013-05-08 17:32:00,75.1,55.0,30.20,NNE,15,1.0,5.0,50,0.00,,,0.00,weatherlink.com 1.10,2013-05-08 21:32:00,
2013-05-08 17:50:00,74.4,57.0,30.19,ESE,115,0.0,2.0,55,0.00,,,0.00,weatherlink.com 1.10,2013-05-08 21:50:00,
2013-05-08 18:08:00,76.0,56.0,30.19,East,90,0.0,3.0,51,0.00,,,0.00,weatherlink.com 1.10,2013-05-08 22:08:00,
2013-05-08 18:26:00,74.4,57.0,30.18,SSE,160,0.0,0.0,55,0.00,,,0.00,weatherlink.com 1.10,2013-05-08 22:26:00,
2013-05-08 18:43:00,73.3,57.0,30.19,SSE,150,1.0,2.0,58,0.00,,,0.00,weatherlink.com 1.10,2013-05-08 22:43:00,
2013-05-08 19:02:00,73.5,57.0,30.19,ESE,118,0.0,2.0,56,0.00,,,0.00,weatherlink.com 1.10,2013-05-08 23:02:00,
2013-05-08 19:19:00,74.4,57.0,30.19,SSE,153,1.0,2.0,54,0.00,,,0.00,weatherlink.com 1.10,2013-05-08 23:19:00,
2013-05-08 19:37:00,73.9,57.0,30.19,SW,214,0.0,2.0,55,0.00,,,0.00,weatherlink.com 1.10,2013-05-08 23:37:00,
2013-05-08 19:55:00,73.0,58.0,30.19,WSW,253,0.0,2.0,59,0.00,,,0.00,weatherlink.com 1.10,2013-05-08 23:55:00,
2013-05-08 20:12:00,71.4,58.0,30.19,WSW,246,0.0,0.0,63,0.00,,,0.00,weatherlink.com 1.10,2013-05-09 00:12:00,
2013-05-08 20:31:00,69.4,58.0,30.20,WSW,246,0.0,0.0,68,0.00,,,0.00,weatherlink.com 1.10,2013-05-09 00:31:00,
2013-05-08 20:48:00,67.9,59.0,30.20,WSW,246,0.0,0.0,72,0.00,,,0.00,weatherlink.com 1.10,2013-05-09 00:48:00,
2013-05-08 21:06:00,67.1,59.0,30.20,WSW,246,0.0,0.0,75,0.00,,,0.00,weatherlink.com 1.10,2013-05-09 01:06:00,
2013-05-08 21:23:00,66.6,59.0,30.20,WSW,246,0.0,1.0,77,0.00,,,0.00,weatherlink.com 1.10,2013-05-09 01:23:00,
2013-05-08 21:42:00,65.6,59.0,30.21,WSW,246,0.0,0.0,78,0.00,,,0.00,weatherlink.com 1.10,2013-05-09 01:42:00,
2013-05-08 21:59:00,64.7,59.0,30.21,WSW,246,0.0,0.0,82,0.00,,,0.00,weatherlink.com 1.10,2013-05-09 01:59:00,
2013-05-08 22:18:00,64.1,59.0,30.23,SE,141,0.0,3.0,82,0.00,,,0.00,weatherlink.com 1.10,2013-05-09 02:18:00,
2013-05-08 22:35:00,64.4,58.0,30.24,WNW,284,0.0,1.0,79,0.00,,,0.00,weatherlink.com 1.10,2013-05-09 02:35:00,
2013-05-08 22:53:00,65.0,57.0,30.24,SE,136,0.0,3.0,75,0.00,,,0.00,weatherlink.com 1.10,2013-05-09 02:53:00,
2013-05-08 23:10:00,64.5,56.0,30.24,ESE,123,2.0,2.0,75,0.00,,,0.00,weatherlink.com 1.10,2013-05-09 03:10:00,
2013-05-08 23:29:00,63.8,56.0,30.23,East,82,0.0,2.0,75,0.00,,,0.00,weatherlink.com 1.10,2013-05-09 03:29:00,
2013-05-08 23:46:00,63.4,55.0,30.23,SE,131,0.0,1.0,75,0.00,,,0.00,weatherlink.com 1.10,2013-05-09 03:46:00,